Søk
Bilder fra klubbens virksomhet
Tooltip
Flydag Kjevik 2011
Tooltip
Dugnad 25 september 2010
Tooltip
Varmebu i hangar
Tooltip
Dugnad 15. juli 2008
Tooltip
Acro med LN-KAQ 15 februar 2006
  • Tilfeldig bilde
     
    Opplastet 02-07-2014
    Opplastet 25-03-2015
    Opplastet 20-05-2008
     
  • Siste bilde
     
    Opplastet 27-07-2018
    Opplastet 05-06-2018
    Opplastet 31-10-2017
     
«StartForrige1234NesteSiste»
Side 2 av 4
 
 
METAR
2020/11/26 23:20 ENCN 262320Z AUTO 06006KT 9999 NCD M02/M02 Q1019
TAF
2020/11/26 17:45 TAF AMD TAF AMD ENCN 261742Z 2617/2620 VRB03KT 0200 FZFG VV001 TEMPO 2617/2620 4000 BCFG SCT002
LN-KFK
Operativ VFR-natt
VFR dag
07:53 - 16:37
Brannvakt
Inaktiv
Banner
Banner
Banner
Banner
Banner